Time;durP1;ratioP1;P1;durP2;ratioP2;P2;SDS_P1;SDS_P2;PMS_P1;PMS_P2;Temp;Humidity;BMP_temperature;BMP_pressure;BME280_temperature;BME280_humidity;BME280_pressure;Samples;Min_cycle;Max_cycle;Signal;HPM_P1;HPM_P2
2022/08/30 00:02:23;;;;;;;;;14.00;13.00;;;;;21.73;67.01;101160.08;111011;1265;13186;-88
2022/08/30 00:04:50;;;;;;;;;14.00;12.67;;;;;21.79;66.86;101155.61;110959;1265;13277;-87
2022/08/30 00:07:17;;;;;;;;;11.00;11.00;;;;;21.86;66.60;101156.57;110934;1265;13400;-88
2022/08/30 00:09:45;;;;;;;;;15.00;13.67;;;;;21.93;66.45;101156.17;110964;1265;12733;-88
2022/08/30 00:12:12;;;;;;;;;15.67;13.33;;;;;22.06;66.01;101162.83;110959;1265;12364;-86
2022/08/30 00:14:40;;;;;;;;;14.67;13.67;;;;;22.01;66.05;101165.77;110956;1266;12985;-86
2022/08/30 00:17:07;;;;;;;;;10.67;10.33;;;;;21.95;66.06;101167.05;110935;1265;13659;-86
2022/08/30 00:19:34;;;;;;;;;11.67;11.33;;;;;22.03;65.97;101168.50;110996;1265;13028;-89
2022/08/30 00:22:02;;;;;;;;;14.00;11.00;;;;;22.14;65.55;101174.47;110810;1265;14604;-88
2022/08/30 00:24:29;;;;;;;;;14.33;11.00;;;;;22.03;65.63;101168.51;110943;1265;13226;-86
2022/08/30 00:26:56;;;;;;;;;10.00;9.33;;;;;21.86;66.00;101162.88;111016;1265;13137;-85
2022/08/30 00:29:24;;;;;;;;;12.00;11.00;;;;;21.93;65.99;101167.45;111026;1265;13175;-87
2022/08/30 00:31:51;;;;;;;;;9.00;9.00;;;;;21.91;65.92;101164.79;110985;1265;13111;-87
2022/08/30 00:34:18;;;;;;;;;10.00;9.00;;;;;22.01;65.72;101168.33;110934;1265;13071;-86
2022/08/30 00:36:45;;;;;;;;;8.33;8.33;;;;;22.01;65.62;101171.61;110939;1265;12848;-86
2022/08/30 00:39:13;;;;;;;;;10.00;9.67;;;;;21.96;65.68;101166.14;111150;1262;12937;-86
2022/08/30 00:41:40;;;;;;;;;10.00;9.00;;;;;21.96;65.70;101164.73;111145;1262;13006;-87
2022/08/30 00:44:08;;;;;;;;;10.00;9.00;;;;;21.92;65.75;101161.58;111223;1262;16601;-84
2022/08/30 00:46:36;;;;;;;;;9.00;9.00;;;;;21.92;65.72;101161.78;111106;1262;12789;-86
2022/08/30 00:49:03;;;;;;;;;10.33;9.00;;;;;21.97;65.59;101158.63;111007;1262;12995;-87
2022/08/30 00:51:32;;;;;;;;;7.00;7.00;;;;;21.90;65.71;101163.94;111146;1262;13204;-85
2022/08/30 00:53:59;;;;;;;;;6.00;6.00;;;;;21.87;65.85;101164.83;111162;1262;12989;-88
2022/08/30 00:56:26;;;;;;;;;7.00;7.00;;;;;21.89;65.78;101164.98;111123;1262;12984;-88
2022/08/30 00:58:54;;;;;;;;;6.67;6.67;;;;;21.97;65.50;101162.96;111136;1262;13090;-88
2022/08/30 01:01:21;;;;;;;;;6.33;5.33;;;;;21.92;65.52;101162.63;111166;1262;13286;-87
2022/08/30 01:03:49;;;;;;;;;6.67;6.33;;;;;21.86;65.65;101166.70;111123;1262;12889;-87
2022/08/30 01:06:16;;;;;;;;;6.00;6.00;;;;;21.82;65.74;101163.80;111114;1262;12669;-88
2022/08/30 01:08:43;;;;;;;;;6.00;6.00;;;;;21.81;65.77;101166.41;111042;1262;14521;-86
2022/08/30 01:11:12;;;;;;;;;6.00;6.00;;;;;21.95;65.48;101164.98;111209;1262;12960;-87
2022/08/30 01:13:39;;;;;;;;;6.00;5.00;;;;;21.96;65.27;101165.86;110891;1262;13139;-86
2022/08/30 01:16:06;;;;;;;;;6.67;6.00;;;;;21.77;65.57;101165.57;110995;1262;12752;-88
2022/08/30 01:18:34;;;;;;;;;5.00;5.00;;;;;21.75;65.82;101164.06;111107;1261;13174;-85
2022/08/30 01:21:02;;;;;;;;;4.33;3.00;;;;;21.80;65.67;101167.64;111206;1262;13153;-86
2022/08/30 01:23:29;;;;;;;;;5.00;5.00;;;;;21.86;65.37;101171.85;111141;1262;13123;-85
2022/08/30 01:25:57;;;;;;;;;5.00;5.00;;;;;21.93;65.14;101171.26;111191;1262;13250;-86
2022/08/30 01:28:24;;;;;;;;;5.33;5.33;;;;;21.91;64.96;101174.16;111128;1262;12718;-88
2022/08/30 01:30:51;;;;;;;;;5.00;5.00;;;;;21.91;65.03;101171.12;111192;1262;12745;-86
2022/08/30 01:33:19;;;;;;;;;3.67;3.67;;;;;21.95;64.89;101167.02;111154;1262;13148;-87
2022/08/30 01:35:47;;;;;;;;;6.00;5.33;;;;;21.87;65.03;101165.71;111124;1262;13172;-87
2022/08/30 01:38:15;;;;;;;;;3.00;3.00;;;;;21.81;65.08;101165.08;111200;1262;13069;-85
2022/08/30 01:40:42;;;;;;;;;3.00;3.00;;;;;21.82;65.15;101163.20;111104;1262;13248;-87
2022/08/30 01:43:10;;;;;;;;;4.33;3.00;;;;;21.84;64.96;101163.33;111091;1262;12934;-85
2022/08/30 01:45:37;;;;;;;;;3.00;3.00;;;;;21.77;65.03;101170.30;111144;1262;13018;-84
2022/08/30 01:48:06;;;;;;;;;3.00;3.00;;;;;21.72;65.15;101169.99;111141;1262;13069;-85
2022/08/30 01:50:33;;;;;;;;;5.00;5.00;;;;;21.79;65.04;101170.46;111032;1262;12731;-87
2022/08/30 01:53:01;;;;;;;;;3.67;3.00;;;;;21.83;64.70;101168.89;111173;1262;13218;-87
2022/08/30 01:55:28;;;;;;;;;3.00;3.00;;;;;21.90;64.59;101172.53;111928;1262;13594;-87
2022/08/30 01:57:55;;;;;;;;;3.67;3.00;;;;;21.82;64.56;101174.52;111916;1262;12943;-87
2022/08/30 02:00:22;;;;;;;;;3.00;3.00;;;;;21.82;64.57;101180.70;111148;1262;12966;-86
2022/08/30 02:02:50;;;;;;;;;3.00;3.00;;;;;21.82;64.57;101180.30;111134;1262;13183;-87
2022/08/30 02:05:18;;;;;;;;;2.67;2.67;;;;;21.84;64.39;101179.73;111142;1262;12545;-86
2022/08/30 02:07:45;;;;;;;;;5.00;3.00;;;;;21.82;64.37;101182.81;111151;1261;13197;-86
2022/08/30 02:10:13;;;;;;;;;2.00;2.00;;;;;21.74;64.52;101183.27;111145;1262;12923;-86
2022/08/30 02:12:41;;;;;;;;;5.00;3.00;;;;;21.77;64.44;101186.51;111151;1262;12959;-86
2022/08/30 02:15:08;;;;;;;;;3.00;3.00;;;;;21.72;64.50;101182.86;111088;1262;13243;-86
2022/08/30 02:17:36;;;;;;;;;3.67;3.67;;;;;21.75;64.48;101187.80;111158;1262;12889;-86
2022/08/30 02:20:04;;;;;;;;;4.33;4.33;;;;;21.85;64.31;101186.66;111059;1262;13087;-87
2022/08/30 02:22:31;;;;;;;;;3.00;3.00;;;;;21.89;63.95;101190.40;111106;1262;12898;-86
2022/08/30 02:24:58;;;;;;;;;3.00;3.00;;;;;21.76;64.30;101190.25;111105;1262;12994;-86
2022/08/30 02:27:26;;;;;;;;;3.00;3.00;;;;;21.72;64.42;101186.48;111113;1262;12788;-88
2022/08/30 02:29:53;;;;;;;;;3.00;2.67;;;;;21.78;64.24;101185.67;111122;1261;13119;-87
2022/08/30 02:32:20;;;;;;;;;3.67;3.00;;;;;21.77;64.15;101175.42;111158;1262;13025;-87
2022/08/30 02:34:48;;;;;;;;;3.00;3.00;;;;;21.76;64.14;101173.68;111151;1261;12583;-87
2022/08/30 02:37:16;;;;;;;;;2.33;2.00;;;;;21.78;64.02;101178.63;111095;1262;13203;-86
2022/08/30 02:39:43;;;;;;;;;2.67;2.67;;;;;21.89;63.77;101173.52;111148;1262;13092;-87
2022/08/30 02:42:10;;;;;;;;;5.00;5.00;;;;;21.89;63.65;101174.81;111115;1262;12620;-86
2022/08/30 02:44:38;;;;;;;;;3.00;3.00;;;;;21.81;63.89;101178.20;111152;1262;13085;-86
2022/08/30 02:47:05;;;;;;;;;3.00;3.00;;;;;21.73;64.12;101181.15;111176;1262;12763;-86
2022/08/30 02:49:32;;;;;;;;;3.00;3.00;;;;;21.83;63.87;101183.67;111114;1261;13069;-86
2022/08/30 02:52:00;;;;;;;;;2.00;2.00;;;;;21.77;63.83;101182.65;111084;1262;13099;-86
2022/08/30 02:54:27;;;;;;;;;5.00;3.00;;;;;21.69;64.04;101182.38;111099;1261;12685;-89
2022/08/30 02:56:56;;;;;;;;;3.00;3.00;;;;;21.67;63.97;101179.25;111095;1262;12658;-86
2022/08/30 02:59:23;;;;;;;;;2.67;2.67;;;;;21.58;64.03;101177.55;111122;1262;14822;-87
2022/08/30 03:01:50;;;;;;;;;3.00;2.00;;;;;21.53;64.08;101177.91;111217;1261;12740;-86
2022/08/30 03:04:18;;;;;;;;;2.00;2.00;;;;;21.58;63.79;101178.30;111098;1262;12750;-86
2022/08/30 03:06:45;;;;;;;;;2.00;2.00;;;;;21.68;63.39;101180.48;111106;1262;14733;-87
2022/08/30 03:09:12;;;;;;;;;2.00;2.00;;;;;21.60;63.18;101184.01;111181;1261;12581;-87
2022/08/30 03:11:40;;;;;;;;;3.00;2.67;;;;;21.67;62.91;101181.16;111166;1262;11563;-86
2022/08/30 03:14:08;;;;;;;;;2.00;2.00;;;;;21.63;62.85;101177.25;111172;1262;13708;-86
2022/08/30 03:16:35;;;;;;;;;2.67;2.67;;;;;21.72;62.62;101175.80;111128;1262;12255;-86
2022/08/30 03:19:02;;;;;;;;;7.00;6.00;;;;;21.66;62.62;101177.41;111170;1262;12918;-86
2022/08/30 03:21:30;;;;;;;;;7.67;7.00;;;;;21.78;62.31;101180.09;111163;1262;12958;-88
2022/08/30 03:23:57;;;;;;;;;7.67;6.00;;;;;21.81;62.09;101176.95;111183;1262;12262;-86
2022/08/30 03:26:25;;;;;;;;;5.00;5.00;;;;;21.80;61.93;101177.48;111195;1262;13100;-87
2022/08/30 03:28:52;;;;;;;;;5.00;3.67;;;;;21.79;62.11;101177.98;111216;1262;12999;-87
2022/08/30 03:31:19;;;;;;;;;6.00;5.00;;;;;21.83;62.09;101176.54;111223;1262;13012;-87
2022/08/30 03:33:47;;;;;;;;;4.33;3.00;;;;;21.92;61.88;101177.71;111208;1262;13119;-88
2022/08/30 03:36:14;;;;;;;;;2.33;2.33;;;;;22.03;61.65;101183.76;111205;1262;12763;-87
2022/08/30 03:38:41;;;;;;;;;3.00;3.00;;;;;21.90;61.95;101182.48;111185;1262;12934;-88
2022/08/30 03:41:09;;;;;;;;;4.33;4.33;;;;;21.82;62.24;101185.27;111207;1262;12183;-86
2022/08/30 03:43:36;;;;;;;;;3.00;3.00;;;;;22.10;61.80;101187.89;111202;1261;12638;-87
2022/08/30 03:46:04;;;;;;;;;3.00;3.00;;;;;22.13;61.58;101190.34;111182;1262;13215;-87
2022/08/30 03:48:31;;;;;;;;;3.67;3.67;;;;;22.01;61.85;101193.42;111094;1262;13291;-87
2022/08/30 03:50:58;;;;;;;;;4.33;4.33;;;;;21.89;62.32;101195.23;111102;1262;13149;-86
2022/08/30 03:53:26;;;;;;;;;5.00;3.00;;;;;21.84;62.52;101194.83;111123;1262;13066;-88
2022/08/30 03:55:53;;;;;;;;;3.00;3.00;;;;;21.86;62.47;101197.34;111099;1262;19012;-87
2022/08/30 03:58:20;;;;;;;;;2.00;2.00;;;;;21.84;62.49;101193.48;111098;1262;12773;-87
2022/08/30 04:00:48;;;;;;;;;3.00;3.00;;;;;21.84;62.53;101199.55;111067;1264;13219;-86
2022/08/30 04:03:17;;;;;;;;;2.00;2.00;;;;;21.85;62.54;101208.02;111136;1264;12477;-86
2022/08/30 04:05:44;;;;;;;;;2.00;2.00;;;;;21.95;62.28;101210.36;112020;1262;14163;-87
2022/08/30 04:08:12;;;;;;;;;2.33;2.33;;;;;22.00;62.02;101210.81;111907;1262;13092;-86
2022/08/30 04:10:39;;;;;;;;;3.00;3.00;;;;;22.09;61.61;101208.70;111200;1261;13189;-88
2022/08/30 04:13:06;;;;;;;;;3.00;3.00;;;;;21.84;61.97;101208.32;111158;1262;13317;-88
2022/08/30 04:15:34;;;;;;;;;4.33;3.00;;;;;21.99;61.77;101210.02;111146;1261;14127;-86
2022/08/30 04:18:01;;;;;;;;;3.00;3.00;;;;;22.01;61.43;101211.50;111139;1262;13161;-88
2022/08/30 04:20:28;;;;;;;;;3.00;3.00;;;;;21.70;62.06;101215.63;111227;1262;11953;-87
2022/08/30 04:22:56;;;;;;;;;3.00;3.00;;;;;21.71;62.25;101219.39;111248;1262;12651;-88
2022/08/30 04:25:23;;;;;;;;;4.33;4.33;;;;;21.69;62.20;101218.68;111212;1262;13174;-88
2022/08/30 04:27:51;;;;;;;;;3.00;3.00;;;;;21.61;62.42;101224.67;111225;1261;12756;-88
2022/08/30 04:30:18;;;;;;;;;3.00;3.00;;;;;21.54;62.61;101225.42;111238;1261;13259;-87
2022/08/30 04:32:45;;;;;;;;;2.00;2.00;;;;;21.48;62.87;101224.50;111201;1261;12976;-86
2022/08/30 04:35:13;;;;;;;;;2.00;2.00;;;;;21.51;62.87;101222.67;111229;1262;13479;-85
2022/08/30 04:37:40;;;;;;;;;3.00;2.00;;;;;21.65;62.61;101219.38;111202;1261;11871;-86
2022/08/30 04:40:07;;;;;;;;;3.00;3.00;;;;;21.59;62.59;101227.61;111168;1262;13003;-83
2022/08/30 04:42:34;;;;;;;;;3.00;3.00;;;;;21.50;62.82;101231.02;111209;1262;13057;-87
2022/08/30 04:45:02;;;;;;;;;5.00;4.33;;;;;21.50;62.94;101229.41;111216;1262;13161;-89
2022/08/30 04:47:29;;;;;;;;;2.67;2.67;;;;;21.49;63.12;101236.03;111202;1262;12142;-87
2022/08/30 04:49:57;;;;;;;;;2.00;2.00;;;;;21.90;62.32;101234.59;111209;1262;12781;-86
2022/08/30 04:52:24;;;;;;;;;3.00;3.00;;;;;22.42;61.03;101237.52;111079;1261;13157;-85
2022/08/30 04:54:51;;;;;;;;;3.67;3.00;;;;;22.79;60.28;101235.27;111107;1262;13177;-86
2022/08/30 04:57:19;;;;;;;;;3.00;3.00;;;;;23.01;59.86;101236.41;111066;1262;12917;-85
2022/08/30 04:59:49;;;;;;;;;3.00;3.00;;;;;23.17;59.91;101240.89;111064;1262;12716;-86
2022/08/30 05:02:16;;;;;;;;;5.00;4.33;;;;;23.27;59.67;101242.08;111143;1262;13030;-86
2022/08/30 05:07:25;;;;;;;;;5.00;3.67;;;;;23.34;59.31;101249.42;111125;1262;12950;-86
2022/08/30 05:09:52;;;;;;;;;2.67;2.67;;;;;23.36;59.09;101247.77;111117;1262;13187;-86
2022/08/30 05:12:19;;;;;;;;;4.33;3.00;;;;;23.37;58.97;101247.77;111142;1261;11758;-86
2022/08/30 05:14:47;;;;;;;;;3.00;3.00;;;;;23.40;58.78;101249.65;111145;1262;10554;-87
2022/08/30 05:17:14;;;;;;;;;3.00;3.00;;;;;23.43;58.63;101245.67;110469;1262;972955;-86
2022/08/30 05:19:42;;;;;;;;;5.00;5.00;;;;;23.44;58.43;101245.49;111082;1264;12006;-88
2022/08/30 05:22:09;;;;;;;;;3.00;3.00;;;;;23.45;58.33;101251.17;111102;1262;13186;-87
2022/08/30 05:24:36;;;;;;;;;2.33;2.33;;;;;23.45;58.21;101252.99;111177;1262;13186;-85
2022/08/30 05:27:04;;;;;;;;;5.33;5.00;;;;;23.48;58.13;101256.40;111168;1262;13082;-88
2022/08/30 05:29:31;;;;;;;;;3.00;3.00;;;;;23.43;58.15;101257.46;111209;1262;13102;-85
2022/08/30 05:31:59;;;;;;;;;2.33;2.33;;;;;23.41;58.31;101261.96;111229;1262;12963;-85
2022/08/30 05:34:26;;;;;;;;;4.33;3.00;;;;;23.45;58.37;101256.83;111121;1262;13203;-87
2022/08/30 05:36:53;;;;;;;;;3.00;3.00;;;;;23.51;58.15;101259.98;111162;1262;13062;-87
2022/08/30 05:39:21;;;;;;;;;3.00;3.00;;;;;23.54;58.02;101258.02;111162;1262;13095;-86
2022/08/30 05:41:48;;;;;;;;;2.67;2.67;;;;;23.57;57.96;101263.73;111223;1262;12641;-86
2022/08/30 05:44:15;;;;;;;;;5.00;3.00;;;;;23.58;57.87;101269.30;111273;1262;13187;-87
2022/08/30 05:46:45;;;;;;;;;5.33;3.00;;;;;23.60;57.79;101268.42;111103;1262;13217;-87
2022/08/30 05:49:12;;;;;;;;;3.00;3.00;;;;;23.63;57.67;101271.77;111103;1262;13190;-87
2022/08/30 05:51:39;;;;;;;;;3.00;3.00;;;;;23.63;57.63;101274.95;111066;1261;12726;-87
2022/08/30 05:54:06;;;;;;;;;3.00;3.00;;;;;23.65;57.49;101269.84;111045;1262;12980;-89
2022/08/30 05:56:34;;;;;;;;;3.00;3.00;;;;;23.66;57.41;101267.30;111115;1262;13227;-84
2022/08/30 05:59:01;;;;;;;;;5.00;5.00;;;;;23.69;57.41;101266.77;111247;1262;13126;-85
2022/08/30 06:01:29;;;;;;;;;4.00;4.00;;;;;23.76;57.57;101269.99;111116;1261;12957;-84
2022/08/30 06:03:57;;;;;;;;;3.00;3.00;;;;;23.82;57.47;101270.19;111083;1262;13301;-85
2022/08/30 06:06:24;;;;;;;;;3.00;3.00;;;;;23.82;57.47;101270.73;111133;1262;13160;-83
2022/08/30 06:08:51;;;;;;;;;3.33;3.00;;;;;23.82;57.47;101273.45;111080;1261;13067;-87
2022/08/30 06:11:19;;;;;;;;;3.00;3.00;;;;;23.81;57.40;101273.10;111112;1263;13090;-85
2022/08/30 06:13:46;;;;;;;;;3.67;3.67;;;;;23.82;57.43;101276.23;111111;1261;13089;-86
2022/08/30 06:16:13;;;;;;;;;8.33;8.00;;;;;23.78;57.30;101276.27;111088;1262;16356;-85
2022/08/30 06:18:40;;;;;;;;;10.00;7.67;;;;;23.46;57.86;101273.71;111159;1262;12968;-84
2022/08/30 06:21:08;;;;;;;;;5.00;5.00;;;;;23.13;58.57;101274.69;111719;1262;13154;-85
2022/08/30 06:23:35;;;;;;;;;7.00;5.67;;;;;22.86;59.26;101275.26;111674;1262;13299;-88
2022/08/30 06:26:02;;;;;;;;;7.00;5.00;;;;;22.80;59.51;101272.31;111234;1262;14569;-87
2022/08/30 06:28:31;;;;;;;;;5.00;5.00;;;;;22.61;59.89;101273.90;111114;1262;16616;-86
2022/08/30 06:30:58;;;;;;;;;5.00;5.00;;;;;22.56;60.06;101273.69;111192;1262;13092;-87
2022/08/30 06:33:25;;;;;;;;;5.33;5.33;;;;;22.58;60.07;101270.80;111170;1262;13259;-89
2022/08/30 06:35:53;;;;;;;;;6.50;6.50;;;;;22.51;60.23;101273.66;111089;1262;13086;-86
2022/08/30 06:38:20;;;;;;;;;6.67;6.00;;;;;22.48;60.39;101270.38;111199;1262;12955;-88
2022/08/30 06:40:49;;;;;;;;;6.33;6.00;;;;;22.52;60.29;101268.61;111161;1262;13080;-88
2022/08/30 06:43:17;;;;;;;;;6.00;5.00;;;;;22.54;60.31;101265.88;111083;1262;12807;-87
2022/08/30 06:45:44;;;;;;;;;3.00;3.00;;;;;22.55;60.39;101273.83;111121;1262;13140;-88
2022/08/30 06:48:11;;;;;;;;;3.67;3.67;;;;;22.51;60.44;101274.17;111122;1262;13343;-88
2022/08/30 06:50:40;;;;;;;;;4.33;4.33;;;;;22.53;60.48;101274.34;111124;1262;13217;-88
2022/08/30 06:53:08;;;;;;;;;7.67;7.00;;;;;22.56;60.37;101281.30;111166;1262;15335;-88
2022/08/30 06:55:35;;;;;;;;;12.00;11.33;;;;;22.52;60.35;101288.81;111148;1262;13109;-88
2022/08/30 06:58:02;;;;;;;;;15.00;12.00;;;;;22.49;60.53;101291.39;111101;1261;13141;-89
2022/08/30 07:00:30;;;;;;;;;11.67;10.67;;;;;22.46;60.60;101296.08;111082;1262;13235;-86
2022/08/30 07:02:57;;;;;;;;;10.33;7.00;;;;;22.49;60.69;101301.57;110938;1262;13230;-87
2022/08/30 07:05:24;;;;;;;;;7.67;7.67;;;;;22.21;60.94;101306.02;111119;1262;13123;-86
2022/08/30 07:07:53;;;;;;;;;7.00;7.00;;;;;21.86;61.92;101304.89;111045;1262;13058;-83
2022/08/30 07:10:20;;;;;;;;;6.00;5.67;;;;;21.85;62.11;101303.30;110974;1262;13139;-86
2022/08/30 07:12:47;;;;;;;;;6.00;5.67;;;;;21.92;61.89;101299.60;111087;1262;12390;-88
2022/08/30 07:15:15;;;;;;;;;6.67;6.00;;;;;22.10;61.61;101304.39;111044;1262;13260;-85
2022/08/30 07:20:27;;;;;;;;;3.00;3.00;;;;;21.88;62.00;101308.34;111130;1262;13162;-84
2022/08/30 07:22:54;;;;;;;;;7.00;7.00;;;;;21.82;62.21;101314.23;111136;1262;13079;-85
2022/08/30 07:25:22;;;;;;;;;5.00;5.00;;;;;21.73;62.38;101316.73;110997;1262;12686;-83
2022/08/30 07:27:50;;;;;;;;;5.00;5.00;;;;;21.69;62.54;101316.79;111124;1262;13102;-84
2022/08/30 07:30:18;;;;;;;;;5.00;5.00;;;;;21.68;62.39;101315.05;111053;1262;10399;-86
2022/08/30 07:32:45;;;;;;;;;6.00;6.00;;;;;21.48;62.51;101320.70;110999;1261;13240;-86
2022/08/30 07:35:12;;;;;;;;;5.00;5.00;;;;;21.27;62.72;101322.50;111088;1262;13128;-87
2022/08/30 07:37:39;;;;;;;;;3.00;3.00;;;;;21.44;62.56;101326.64;111024;1262;13142;-84
2022/08/30 07:40:07;;;;;;;;;3.00;3.00;;;;;21.41;62.56;101330.96;111051;1262;12710;-86
2022/08/30 07:42:35;;;;;;;;;5.00;5.00;;;;;21.37;62.22;101333.58;111057;1262;13188;-87
2022/08/30 07:45:03;;;;;;;;;5.33;5.00;;;;;21.27;62.09;101338.65;111123;1262;13190;-85
2022/08/30 07:47:30;;;;;;;;;5.00;5.00;;;;;21.27;61.71;101340.98;111204;1261;13083;-86
2022/08/30 07:49:57;;;;;;;;;7.00;6.00;;;;;21.17;61.67;101336.96;111129;1262;12668;-82
2022/08/30 07:52:26;;;;;;;;;4.33;3.00;;;;;21.21;61.52;101339.84;111153;1261;12434;-86
2022/08/30 07:54:53;;;;;;;;;5.00;5.00;;;;;21.51;60.78;101342.10;111199;1261;13065;-85
2022/08/30 07:57:21;;;;;;;;;4.67;4.67;;;;;21.56;60.31;101342.14;111207;1261;12976;-85
2022/08/30 07:59:48;;;;;;;;;5.00;5.00;;;;;21.57;60.29;101344.60;111224;1261;12410;-84
2022/08/30 08:02:15;;;;;;;;;3.00;3.00;;;;;21.27;61.21;101348.55;111244;1261;12865;-84
2022/08/30 08:04:43;;;;;;;;;5.00;4.33;;;;;21.17;61.77;101345.65;111160;1261;13113;-85
2022/08/30 08:07:10;;;;;;;;;5.00;4.67;;;;;21.71;60.87;101342.91;111281;1261;13036;-84
2022/08/30 08:09:37;;;;;;;;;6.50;6.50;;;;;22.15;59.77;101347.14;111244;1261;13092;-84
2022/08/30 08:12:05;;;;;;;;;5.00;5.00;;;;;22.47;59.05;101351.23;111166;1261;12953;-84
2022/08/30 08:14:32;;;;;;;;;5.50;5.00;;;;;22.59;58.79;101354.54;111220;1261;13285;-85
2022/08/30 08:16:59;;;;;;;;;5.00;5.00;;;;;22.64;58.55;101355.08;111180;1261;13106;-85
2022/08/30 08:19:27;;;;;;;;;7.00;6.00;;;;;22.53;58.57;101357.28;111224;1261;12689;-85
2022/08/30 08:21:56;;;;;;;;;5.33;5.00;;;;;22.49;58.56;101356.92;111219;1261;12896;-85
2022/08/30 08:24:23;;;;;;;;;5.00;5.00;;;;;22.50;58.64;101355.79;111243;1261;12540;-85
2022/08/30 08:26:51;;;;;;;;;5.67;5.00;;;;;22.49;58.67;101358.92;111270;1261;13041;-85
2022/08/30 08:29:18;;;;;;;;;4.33;4.33;;;;;22.47;58.76;101356.44;111191;1261;12424;-85
2022/08/30 08:31:45;;;;;;;;;6.00;6.00;;;;;22.49;58.58;101360.55;111169;1261;12335;-87
2022/08/30 08:34:13;;;;;;;;;3.00;3.00;;;;;22.50;58.75;101362.83;111604;1262;13092;-85
2022/08/30 08:36:40;;;;;;;;;5.00;5.00;;;;;22.53;58.63;101359.40;111885;1262;13087;-85
2022/08/30 08:39:07;;;;;;;;;5.00;5.00;;;;;22.62;58.56;101361.06;111193;1261;13102;-86
2022/08/30 08:41:35;;;;;;;;;5.00;5.00;;;;;22.64;58.45;101366.38;111218;1261;12991;-86
2022/08/30 08:44:04;;;;;;;;;5.00;5.00;;;;;22.68;58.52;101366.40;111226;1261;13208;-87
2022/08/30 08:46:31;;;;;;;;;6.00;5.00;;;;;22.75;58.38;101368.95;111172;1261;12755;-86
2022/08/30 08:48:58;;;;;;;;;4.33;4.33;;;;;22.78;58.34;101364.95;111095;1260;13168;-87
2022/08/30 08:54:11;;;;;;;;;5.33;5.33;;;;;22.79;58.19;101362.86;111075;1262;13106;-86
2022/08/30 08:56:38;;;;;;;;;6.00;6.00;;;;;22.86;57.92;101365.48;111227;1261;13154;-85
2022/08/30 08:59:05;;;;;;;;;6.33;6.00;;;;;22.89;57.77;101371.33;111123;1262;12691;-84
2022/08/30 09:01:33;;;;;;;;;7.00;6.00;;;;;22.99;57.79;101372.39;111194;1262;13075;-84
2022/08/30 09:04:00;;;;;;;;;5.00;5.00;;;;;23.15;57.74;101371.81;111157;1262;12971;-85
2022/08/30 09:06:28;;;;;;;;;8.00;6.00;;;;;23.20;57.52;101377.48;111080;1261;12786;-86
2022/08/30 09:08:55;;;;;;;;;6.00;6.00;;;;;23.23;57.17;101372.02;111160;1261;13137;-86
2022/08/30 09:11:23;;;;;;;;;6.00;5.00;;;;;23.28;56.98;101371.80;111170;1260;13201;-88
2022/08/30 09:13:50;;;;;;;;;3.00;3.00;;;;;23.28;56.81;101371.66;111241;1261;13056;-87
2022/08/30 09:16:17;;;;;;;;;5.33;5.33;;;;;23.26;56.81;101372.08;111197;1261;13189;-85
2022/08/30 09:18:45;;;;;;;;;6.67;5.33;;;;;23.26;56.78;101371.33;111206;1261;13011;-86
2022/08/30 09:21:12;;;;;;;;;6.33;6.00;;;;;23.17;56.46;101368.11;111123;1261;13340;-87
2022/08/30 09:23:39;;;;;;;;;6.67;6.00;;;;;23.08;56.40;101367.02;111174;1261;12870;-86
2022/08/30 09:26:07;;;;;;;;;5.00;5.00;;;;;23.17;56.21;101366.65;111281;1261;13245;-84
2022/08/30 09:28:35;;;;;;;;;6.00;6.00;;;;;23.24;56.10;101363.47;111206;1261;12933;-85
2022/08/30 09:31:02;;;;;;;;;5.00;5.00;;;;;23.37;55.87;101368.91;111229;1261;13194;-86
2022/08/30 09:33:29;;;;;;;;;6.33;6.33;;;;;23.45;55.73;101371.02;111197;1261;17350;-88
2022/08/30 09:35:57;;;;;;;;;7.00;7.00;;;;;23.46;55.73;101371.67;111224;1261;13080;-86
2022/08/30 09:38:24;;;;;;;;;10.33;8.00;;;;;23.43;55.77;101375.61;111168;1262;12989;-89
2022/08/30 09:40:51;;;;;;;;;9.33;8.67;;;;;23.47;56.04;101371.02;111161;1261;13069;-88
2022/08/30 09:43:18;;;;;;;;;8.00;8.00;;;;;23.51;55.85;101372.19;111219;1261;12625;-88
2022/08/30 09:45:46;;;;;;;;;11.67;11.00;;;;;23.62;55.81;101362.85;111143;1261;12944;-85
2022/08/30 09:48:13;;;;;;;;;11.00;11.00;;;;;23.80;55.22;101363.75;111224;1261;13250;-88
2022/08/30 09:50:41;;;;;;;;;7.00;6.00;;;;;23.76;54.55;101367.39;111178;1262;13128;-88
2022/08/30 09:53:10;;;;;;;;;9.00;8.00;;;;;23.26;54.55;101360.98;111238;1261;13204;-88
2022/08/30 09:55:37;;;;;;;;;8.00;6.67;;;;;23.21;55.19;101365.67;111144;1262;13208;-86
2022/08/30 09:58:05;;;;;;;;;6.00;6.00;;;;;23.11;55.68;101366.77;111193;1262;13186;-87
2022/08/30 10:00:33;;;;;;;;;7.00;6.00;;;;;23.40;55.86;101364.23;111228;1261;13170;-87
2022/08/30 10:03:00;;;;;;;;;5.00;5.00;;;;;23.63;54.30;101367.65;111205;1260;13278;-87
2022/08/30 10:05:28;;;;;;;;;3.00;3.00;;;;;23.62;52.28;101364.98;111260;1261;12928;-87
2022/08/30 10:07:55;;;;;;;;;5.33;3.67;;;;;23.59;51.17;101366.84;111231;1261;13056;-85
2022/08/30 10:10:23;;;;;;;;;3.00;3.00;;;;;23.63;50.90;101371.72;111209;1260;13114;-86
2022/08/30 10:12:50;;;;;;;;;6.00;5.00;;;;;23.48;50.50;101364.84;111176;1261;12222;-87
2022/08/30 10:15:17;;;;;;;;;3.00;3.00;;;;;23.43;50.48;101367.52;111237;1261;16884;-88
2022/08/30 10:17:45;;;;;;;;;3.00;3.00;;;;;23.19;50.18;101368.82;111197;1262;13116;-88
2022/08/30 10:20:12;;;;;;;;;4.50;4.00;;;;;23.28;50.19;101364.34;111280;1261;14845;-89
2022/08/30 10:22:39;;;;;;;;;5.33;3.67;;;;;23.27;50.03;101364.04;111247;1261;12976;-86
2022/08/30 10:25:07;;;;;;;;;5.33;5.33;;;;;23.30;50.01;101363.30;111195;1261;13057;-86
2022/08/30 10:27:34;;;;;;;;;4.00;4.00;;;;;23.40;49.96;101361.10;111200;1261;13116;-88
2022/08/30 10:30:02;;;;;;;;;4.00;4.00;;;;;23.42;50.12;101361.23;111135;1261;13176;-89
2022/08/30 10:32:29;;;;;;;;;4.33;4.33;;;;;23.45;49.99;101365.58;111270;1261;13062;-88
2022/08/30 10:34:57;;;;;;;;;3.00;3.00;;;;;23.39;50.40;101359.44;111155;1261;13220;-90
2022/08/30 10:37:24;;;;;;;;;6.00;6.00;;;;;23.34;50.78;101361.19;111234;1261;13056;-88
2022/08/30 10:39:51;;;;;;;;;3.67;3.67;;;;;23.29;51.26;101361.49;111263;1261;13067;-87
2022/08/30 10:42:20;;;;;;;;;6.00;5.33;;;;;23.25;51.39;101369.48;111163;1262;13063;-87
2022/08/30 10:44:47;;;;;;;;;5.00;5.00;;;;;23.13;51.53;101366.20;111180;1261;12899;-87
2022/08/30 10:47:14;;;;;;;;;6.00;5.33;;;;;23.15;51.59;101365.45;111285;1261;12823;-91
2022/08/30 10:49:42;;;;;;;;;5.67;5.67;;;;;23.15;51.71;101368.95;111977;1261;13080;-86
2022/08/30 10:52:09;;;;;;;;;3.67;3.00;;;;;23.14;51.55;101365.11;111971;1261;13684;-86
2022/08/30 10:54:36;;;;;;;;;5.00;4.33;;;;;23.15;51.38;101357.35;111223;1261;12962;-87
2022/08/30 10:57:04;;;;;;;;;5.33;5.33;;;;;23.13;51.09;101358.95;111282;1261;12577;-85
2022/08/30 10:59:31;;;;;;;;;3.67;3.00;;;;;23.08;51.26;101354.59;111368;1261;13089;-86
2022/08/30 11:01:59;;;;;;;;;5.33;3.67;;;;;23.11;51.27;101358.84;111314;1261;13150;-84
2022/08/30 11:04:26;;;;;;;;;3.67;3.00;;;;;23.23;51.35;101357.73;111266;1262;13193;-85
2022/08/30 11:06:53;;;;;;;;;3.00;3.00;;;;;23.23;50.95;101362.70;111249;1261;12707;-86
2022/08/30 11:09:21;;;;;;;;;3.00;3.00;;;;;23.21;50.73;101360.21;111305;1261;13129;-86
2022/08/30 11:11:48;;;;;;;;;6.00;5.00;;;;;23.15;50.59;101362.17;111185;1261;13211;-87
2022/08/30 11:14:15;;;;;;;;;6.00;6.00;;;;;23.15;50.77;101362.52;111245;1261;13046;-86
2022/08/30 11:16:43;;;;;;;;;7.00;6.00;;;;;23.17;51.04;101358.95;111250;1261;13089;-86
2022/08/30 11:19:10;;;;;;;;;6.00;5.00;;;;;23.18;50.74;101358.89;111232;1261;13108;-87
2022/08/30 11:21:37;;;;;;;;;3.67;3.67;;;;;23.21;50.43;101360.89;111229;1261;13218;-85
2022/08/30 11:24:06;;;;;;;;;5.00;5.00;;;;;23.36;50.32;101357.92;111230;1260;12673;-86
2022/08/30 11:26:33;;;;;;;;;3.00;3.00;;;;;23.39;50.01;101360.80;111127;1261;14167;-86